Flight Track Log - Related Links

Times and Time Zones

All times are in EDT time to prevent confusion due to time zone crossing. See the ASQ6122 flight status page for this flight to view local times or setup timezone preferences in your user account.

Time Position Orientation Groundspeed Altitude Reporting Facility
EDT Latitude Longitude Course Direction KTS MPH feet Rate Location/Type
Sun 10:03:06 AM 41.9500 -87.9000 160° South 185 213 2,100  Level Chicago TRACON
Sun 10:04:06 AM 41.8833 -87.8667 160° South 240 276 5,500 2,936 Climbing Chicago TRACON
Sun 10:06:14 AM 41.7250 -87.7692 155° Southeast 302 348 11,300 2,558 Climbing Chicago Center
Sun 10:07:16 AM 41.6397 -87.7131 154° Southeast 336 387 13,600 1,935 Climbing Chicago Center
Sun 10:08:18 AM 41.5492 -87.6542 154° Southeast 357 411 15,300 1,512 Climbing Chicago Center
Sun 10:09:19 AM 41.4514 -87.5900 154° Southeast 383 441 16,700 1,268 Climbing Chicago Center
Sun 10:10:21 AM 41.3383 -87.5575 168° South 415 478 17,900 1,258 Climbing Chicago Center
Sun 10:11:23 AM 41.2222 -87.5372 173° South 418 481 19,300 1,366 Climbing Chicago Center
Sun 10:12:24 AM 41.1028 -87.5072 169° South 434 499 20,700 1,415 Climbing Chicago Center
Sun 10:13:26 AM 40.9822 -87.4750 169° South 441 507 22,200 1,452 Climbing Chicago Center
Sun 10:14:28 AM 40.8608 -87.4411 168° South 443 510 23,700 1,561 Climbing Chicago Center
Sun 10:15:29 AM 40.7150 -87.4053 169° South 444 511 25,400 1,463 Climbing Chicago Center
Sun 10:16:31 AM 40.5950 -87.3722 168° South 441 507 26,700 774 Climbing Chicago Center
Sun 10:17:33 AM 40.4725 -87.3397 169° South 447 514 27,000 146 Climbing Chicago Center
Sun 10:18:34 AM 40.3378 -87.2808 162° South 476 548 27,000  Level Chicago Center
Sun 10:19:36 AM 40.2106 -87.2208 160° South 487 560 27,000  Level Chicago Center
Sun 10:20:24 AM 40.1061 -87.1733 161° South 490 564 27,000  Level Indianapolis Center
Sun 10:21:26 AM 39.9789 -87.1089 159° South 494 568 27,000  Level Indianapolis Center
Sun 10:22:27 AM 39.8614 -87.0119 148° Southeast 503 579 27,000  Level Indianapolis Center
Sun 10:23:29 AM 39.7439 -86.9128 147° Southeast 506 582 27,000  Level Indianapolis Center
Sun 10:24:31 AM 39.6269 -86.8161 148° Southeast 506 582 27,000 -488 Level Indianapolis Center
Sun 10:25:32 AM 39.4881 -86.7011 147° Southeast 500 575 26,000 -1,122 Descending Indianapolis Center
Sun 10:26:34 AM 39.3747 -86.6061 147° Southeast 495 570 24,700 -1,113 Descending Indianapolis Center
Sun 10:27:36 AM 39.2617 -86.5139 148° Southeast 488 562 23,700 -823 Descending Indianapolis Center
Sun 10:28:38 AM 39.1503 -86.4217 147° Southeast 481 554 23,000 -341 Descending Indianapolis Center
Sun 10:29:39 AM 39.0389 -86.3292 147° Southeast 480 552 23,000 -98 Level Indianapolis Center
Sun 10:30:41 AM 38.9039 -86.2200 148° Southeast 481 554 22,800 -780 Descending Indianapolis Center
Sun 10:31:42 AM 38.7961 -86.1322 148° Southeast 478 550 21,400 -1,463 Descending Indianapolis Center
Sun 10:32:44 AM 38.6861 -86.0439 148° Southeast 466 536 19,800 -1,500 Descending Indianapolis Center
Sun 10:33:46 AM 38.5861 -85.9419 141° Southeast 461 531 18,300 -1,366 Descending Indianapolis Center
Sun 10:34:47 AM 38.5272 -85.7992 118° Southeast 457 526 17,000 -1,220 Descending Indianapolis Center
Sun 10:35:49 AM 38.4694 -85.6575 117° Southeast 448 516 15,800 -976 Descending Indianapolis Center
Sun 10:36:50 AM 38.4153 -85.5233 117° Southeast 427 491 15,000 -976 Descending Indianapolis Center
Sun 10:37:52 AM 38.3603 -85.3897 118° Southeast 423 487 13,800 -1,317 Descending Indianapolis Center
Sun 10:38:53 AM 38.2964 -85.2331 117° Southeast 411 473 12,300 -1,220 Descending Indianapolis Center
Sun 10:39:55 AM 38.2547 -85.1217 115° Southeast 402 463 11,300 -1,452 Descending Indianapolis Center
Sun 10:40:57 AM 38.2283 -84.9906 104° East 318 366 9,300 -2,000 Descending Indianapolis Center
Sun 10:41:58 AM 38.2081 -84.8864 104° East 306 352 7,200 -1,610 Descending Indianapolis Center
Sun 10:43:00 AM 38.1906 -84.7906 103° East 293 337 6,000 -1,171 Descending Indianapolis Center
Sun 10:44:01 AM 38.1719 -84.7053 105° East 269 310 4,800 -1,073 Descending Indianapolis Center
Sun 10:45:03 AM 38.1553 -84.6283 105° East 246 283 3,800 -829 Descending Indianapolis Center
Sun 10:46:04 AM 38.1325 -84.5558 112° Southeast 232 267 3,100 -732 Descending Indianapolis Center
Sun 10:47:06 AM 38.0764 -84.5586 182° South 203 234 2,300 -774 Descending Indianapolis Center

Login

Don't have an account? Register now (free) for customized features, flight alerts, and more!